^^
Datos históricos de la estación: Murcia-Puente Tocinos
Diario Informe para Agosto 6, 2019 Unidades:  Métrico    Ingés   Ambas
Diario Semanal Mensual Anual
  Máxima: Mínima: Promedio:
Temperatura: 24.2 °C 13.6 °C 18.2 °C
Punto de rocio: 15.2 °C 11.1 °C 13.2 °C
Humedad: 86% 55% 74%
Velocidad viento: 18km/h 0km/h 7.3km/h
Racha viento: 33.8km/h - -
Viento- - Este
Presión: 1017.7 hPa 1015.0 hPa -
Precipitación: 0.0 mm    
 
 
Tabla de datos para Agosto 6, 2019
Hora Temperatura Punto de rocio Presión Viento Velocidad viento Racha viento Humedad Intensidad lluvia(por hora) Nubes
00:04 15.6 °C 11.3 °C 1015.2 hPa NE 6.9 km/h 13 km/h 75.4% 0.0 mm
00:09 15.6 °C 11.4 °C 1015.1 hPa NE 7.1 km/h 13.7 km/h 76% 0.0 mm
00:14 15.5 °C 11.3 °C 1015.1 hPa NNE 7.6 km/h 14.5 km/h 76% 0.0 mm
00:19 15.4 °C 11.2 °C 1015.3 hPa NNE 7.4 km/h 11.3 km/h 76.3% 0.0 mm
00:24 15.3 °C 11.3 °C 1015.3 hPa NNE 6.9 km/h 11.3 km/h 77% 0.0 mm
00:29 15.3 °C 11.3 °C 1015.3 hPa NNE 6.6 km/h 10 km/h 77% 0.0 mm
00:34 15.3 °C 11.3 °C 1015.3 hPa NE 5.8 km/h 9.7 km/h 77% 0.0 mm
00:39 15.3 °C 11.3 °C 1015.3 hPa NE 5.4 km/h 8.7 km/h 77% 0.0 mm
00:44 15.3 °C 11.2 °C 1015.3 hPa NNE 4.6 km/h 9.7 km/h 77% 0.0 mm
00:49 15.2 °C 11.2 °C 1015.3 hPa NNE 4.7 km/h 9.7 km/h 77% 0.0 mm
00:54 15.2 °C 11.2 °C 1015.3 hPa NNE 5 km/h 8.4 km/h 77% 0.0 mm
00:59 15.2 °C 11.2 °C 1015.3 hPa NNE 4.9 km/h 9.3 km/h 77.3% 0.0 mm
01:04 15.2 °C 11.3 °C 1015.4 hPa NNE 4.6 km/h 9.7 km/h 77.8% 0.0 mm
01:09 15.1 °C 11.3 °C 1015.4 hPa NNE 5.1 km/h 9.7 km/h 78% 0.0 mm
01:14 15.1 °C 11.3 °C 1015.4 hPa NNE 5.8 km/h 8.4 km/h 78% 0.0 mm
01:19 15 °C 11.2 °C 1015.5 hPa NNE 5.8 km/h 8.4 km/h 78% 0.0 mm
01:24 14.9 °C 11.1 °C 1015.5 hPa NNE 5.8 km/h 11.1 km/h 78.1% 0.0 mm
01:29 14.9 °C 11.3 °C 1015.5 hPa NNE 5.8 km/h 11.3 km/h 79% 0.0 mm
01:34 14.8 °C 11.2 °C 1015.5 hPa NNE 5.8 km/h 11.3 km/h 79% 0.0 mm
01:39 14.8 °C 11.2 °C 1015.4 hPa NNE 6.2 km/h 11.3 km/h 79% 0.0 mm
01:44 14.8 °C 11.2 °C 1015.4 hPa NNE 6.9 km/h 9.7 km/h 79.3% 0.0 mm
01:49 14.8 °C 11.3 °C 1015.4 hPa NO 5.5 km/h 8.7 km/h 79.8% 0.0 mm
01:54 14.8 °C 11.2 °C 1015.4 hPa NNO 3.2 km/h 9.7 km/h 79% 0.0 mm
01:59 14.8 °C 11.2 °C 1015.4 hPa NNO 3.5 km/h 10 km/h 79% 0.0 mm
02:04 14.8 °C 11.4 °C 1015.4 hPa NNE 3.9 km/h 9.7 km/h 80% 0.0 mm
02:09 14.8 °C 11.4 °C 1015.3 hPa North 3.9 km/h 9.7 km/h 80% 0.0 mm
02:14 14.7 °C 11.3 °C 1015.3 hPa NNE 3.9 km/h 8 km/h 80% 0.0 mm
02:19 14.7 °C 11.3 °C 1015.3 hPa NNE 3.2 km/h 8 km/h 80% 0.0 mm
02:24 14.7 °C 11.3 °C 1015.3 hPa NNE 2.2 km/h 9.5 km/h 80% 0.0 mm
02:29 14.7 °C 11.3 °C 1015.3 hPa NNE 2.9 km/h 9.7 km/h 80% 0.0 mm
02:34 14.6 °C 11.2 °C 1015.3 hPa NE 3.9 km/h 8 km/h 80% 0.0 mm
02:39 14.6 °C 11.3 °C 1015.2 hPa NE 3.9 km/h 8 km/h 80.8% 0.0 mm
02:44 14.5 °C 11.3 °C 1015.2 hPa NNE 3.9 km/h 5.6 km/h 81% 0.0 mm
02:49 14.5 °C 11.3 °C 1015.4 hPa NNE 3.2 km/h 5.6 km/h 81% 0.0 mm
02:54 14.5 °C 11.3 °C 1015.4 hPa NNE 2.2 km/h 5.6 km/h 81% 0.0 mm
02:59 14.4 °C 11.2 °C 1015.4 hPa ENE 2.6 km/h 5.6 km/h 81% 0.0 mm
03:04 14.4 °C 11.2 °C 1015.4 hPa ENE 2.9 km/h 7.4 km/h 81% 0.0 mm
03:09 14.4 °C 11.2 °C 1015.2 hPa NE 3 km/h 8 km/h 81% 0.0 mm
03:14 14.4 °C 11.3 °C 1015.2 hPa ENE 3.2 km/h 8 km/h 81.7% 0.0 mm
03:19 14.4 °C 11.4 °C 1015.2 hPa Este 3.5 km/h 8 km/h 82% 0.0 mm
03:24 14.4 °C 11.4 °C 1015.2 hPa Este 3.9 km/h 6.4 km/h 82% 0.0 mm
03:29 14.4 °C 11.4 °C 1015.2 hPa NE 3.2 km/h 6.4 km/h 82% 0.0 mm
03:34 14.4 °C 11.4 °C 1015.2 hPa NNO 2.2 km/h 8 km/h 82% 0.0 mm
03:39 14.4 °C 11.4 °C 1015.2 hPa NO 2.5 km/h 8.7 km/h 82% 0.0 mm
03:44 14.3 °C 11.3 °C 1015.2 hPa NO 2.9 km/h 9.7 km/h 82% 0.0 mm
03:49 14.3 °C 11.3 °C 1015.3 hPa NNO 3 km/h 8 km/h 82% 0.0 mm
03:54 14.3 °C 11.3 °C 1015.3 hPa NNO 3.2 km/h 4.8 km/h 82% 0.0 mm
03:59 14.3 °C 11.3 °C 1015.3 hPa North 1.7 km/h 7.4 km/h 82% 0.0 mm
04:04 14.3 °C 11.3 °C 1015.3 hPa Calm   8 km/h 82.3% 0.0 mm
04:09 14.2 °C 11.4 °C 1015.3 hPa NNE 1.2 km/h 8 km/h 83% 0.0 mm
04:14 14.3 °C 11.4 °C 1015.3 hPa NNE 2.9 km/h   83% 0.0 mm
04:19 14.3 °C 11.4 °C 1015.3 hPa NNE 1.7 km/h 5.8 km/h 83% 0.0 mm
04:24 14.2 °C 11.3 °C 1015.3 hPa Calm   6.4 km/h 82.5% 0.0 mm
04:29 14.2 °C 11.3 °C 1015.3 hPa NNE 1.3 km/h 8.4 km/h 83% 0.0 mm
04:34 14.1 °C 11.3 °C 1015.3 hPa NE 3.2 km/h 8 km/h 83% 0.0 mm
04:39 14.1 °C 11.3 °C 1015.3 hPa NE 3.5 km/h 8 km/h 83% 0.0 mm
04:44 14 °C 11.2 °C 1015.3 hPa NE 3.9 km/h 8 km/h 83% 0.0 mm
04:49 14 °C 11.3 °C 1015.5 hPa NE 3.6 km/h 8 km/h 83.8% 0.0 mm
04:54 13.9 °C 11.2 °C 1015.5 hPa NE 3.2 km/h 6.4 km/h 84% 0.0 mm
04:59 13.9 °C 11.2 °C 1015.5 hPa NE 1.6 km/h 4.8 km/h 84% 0.0 mm
05:04 13.9 °C 11.2 °C 1015.6 hPa Calm     84% 0.0 mm
05:09 13.9 °C 11.2 °C 1015.6 hPa Calm   3.7 km/h 84% 0.0 mm
05:14 13.9 °C 11.2 °C 1015.6 hPa Calm   3.2 km/h 84% 0.0 mm
05:19 13.9 °C 11.2 °C 1015.6 hPa NE 0.9 km/h 7.4 km/h 84% 0.0 mm
05:24 13.9 °C 11.2 °C 1015.6 hPa ENE 2.2 km/h 8 km/h 84% 0.0 mm
05:29 13.9 °C 11.2 °C 1015.6 hPa Este 2.2 km/h 4.8 km/h 84% 0.0 mm
05:34 13.8 °C 11.2 °C 1015.7 hPa Este 2.2 km/h 3.9 km/h 84% 0.0 mm
05:39 13.8 °C 11.3 °C 1015.7 hPa Este 1.3 km/h 3.2 km/h 84.7% 0.0 mm
05:44 13.8 °C 11.4 °C 1015.7 hPa Calm     85% 0.0 mm
05:49 13.8 °C 11.3 °C 1015.8 hPa Calm   3.7 km/h 84.7% 0.0 mm
05:54 13.8 °C 11.4 °C 1015.8 hPa Calm   4.7 km/h 85% 0.0 mm
05:59 13.8 °C 11.3 °C 1015.8 hPa Calm   6.4 km/h 84.5% 0.0 mm
06:04 13.8 °C 11.2 °C 1015.8 hPa Calm   8 km/h 84% 0.0 mm
06:09 13.7 °C 11.1 °C 1015.8 hPa Este 1.2 km/h 8 km/h 84% 0.0 mm
06:14 13.7 °C 11.2 °C 1015.8 hPa Este 2.9 km/h 7.4 km/h 84.8% 0.0 mm
06:19 13.6 °C 11.1 °C 1015.9 hPa Este 2.9 km/h 8 km/h 85% 0.0 mm
06:24 13.6 °C 11.1 °C 1015.9 hPa Este 2.9 km/h 6.4 km/h 85.1% 0.0 mm
06:29 13.6 °C 11.3 °C 1015.9 hPa Este 2.9 km/h 6.4 km/h 86% 0.0 mm
06:34 13.6 °C 11.1 °C 1016.0 hPa ESE 2.9 km/h 7.4 km/h 85.2% 0.0 mm
06:39 13.6 °C 11.2 °C 1016.0 hPa ESE 2.9 km/h 8 km/h 85.5% 0.0 mm
06:44 13.6 °C 11.2 °C 1016.0 hPa ESE 2.9 km/h 5.8 km/h 85.3% 0.0 mm
06:49 13.6 °C 11.1 °C 1016.1 hPa ESE 2.9 km/h 6.4 km/h 85.1% 0.0 mm
06:54 13.6 °C 11.1 °C 1016.1 hPa ESE 2.9 km/h 5.8 km/h 85% 0.0 mm
06:59 13.7 °C 11.2 °C 1016.1 hPa ESE 2.9 km/h 6.4 km/h 85% 0.0 mm
07:04 13.7 °C 11.4 °C 1016.4 hPa ESE 2.9 km/h 3.9 km/h 85.8% 0.0 mm
07:09 13.8 °C 11.3 °C 1016.4 hPa ESE 2.6 km/h 7.6 km/h 85.2% 0.0 mm
07:14 13.8 °C 11.3 °C 1016.4 hPa SE 2.2 km/h 8 km/h 85% 0.0 mm
07:19 13.8 °C 11.3 °C 1016.5 hPa SE 2.5 km/h 8 km/h 85% 0.0 mm
07:24 13.8 °C 11.4 °C 1016.5 hPa SE 2.9 km/h   85% 0.0 mm
07:29 13.9 °C 11.4 °C 1016.5 hPa SE 1.8 km/h   85% 0.0 mm
07:34 14 °C 11.5 °C 1016.6 hPa Calm     85% 0.0 mm
07:39 14.1 °C 11.5 °C 1016.6 hPa Calm     84.1% 0.0 mm
07:44 14.1 °C 11.4 °C 1016.6 hPa Calm     84% 0.0 mm
07:49 14.2 °C 11.5 °C 1016.9 hPa Calm     84% 0.0 mm
07:54 14.2 °C 11.5 °C 1016.9 hPa Calm     83.6% 0.0 mm
07:59 14.2 °C 11.6 °C 1016.9 hPa Calm     84% 0.0 mm
08:04 14.3 °C 11.6 °C 1017.0 hPa Calm     83.5% 0.0 mm
08:09 14.4 °C 11.7 °C 1017.0 hPa Calm     83.7% 0.0 mm
08:14 14.4 °C 11.7 °C 1017.0 hPa Calm     84% 0.0 mm
08:19 14.5 °C 11.9 °C 1017.1 hPa Calm   3.7 km/h 83.9% 0.0 mm
08:24 14.6 °C 11.7 °C 1017.1 hPa Calm   5.8 km/h 83% 0.0 mm
08:29 14.6 °C 11.8 °C 1017.1 hPa NNE 0.9 km/h 6.4 km/h 83% 0.0 mm
08:34 14.7 °C 11.8 °C 1017.2 hPa NNE 2.2 km/h 3.9 km/h 83% 0.0 mm
08:39 14.8 °C 11.9 °C 1017.2 hPa NNE 1.4 km/h 4.7 km/h 83% 0.0 mm
08:44 14.9 °C 12 °C 1017.2 hPa Calm   5 km/h 83% 0.0 mm
08:49 15 °C 11.9 °C 1017.4 hPa Calm   7.4 km/h 82% 0.0 mm
08:54 15.1 °C 12 °C 1017.4 hPa Calm   8 km/h 82% 0.0 mm
08:59 15.2 °C 12.1 °C 1017.4 hPa NO 1.5 km/h 8 km/h 82% 0.0 mm
09:04 15.3 °C 12.2 °C 1017.4 hPa NO 2.9 km/h 8 km/h 81.8% 0.0 mm
09:09 15.3 °C 12.1 °C 1017.3 hPa NO 1.8 km/h 4.7 km/h 81% 0.0 mm
09:14 15.4 °C 12.1 °C 1017.3 hPa Calm   4.8 km/h 81% 0.0 mm
09:19 15.5 °C 12.3 °C 1017.6 hPa Calm   4.7 km/h 81% 0.0 mm
09:24 15.6 °C 12.3 °C 1017.6 hPa Calm   5.8 km/h 80.9% 0.0 mm
09:29 15.7 °C 12.2 °C 1017.6 hPa Calm   6.4 km/h 80% 0.0 mm
09:34 15.7 °C 12.3 °C 1017.6 hPa Calm   8 km/h 80% 0.0 mm
09:39 15.8 °C 12.4 °C 1017.5 hPa Calm   4.8 km/h 80% 0.0 mm
09:44 16.1 °C 12.6 °C 1017.5 hPa Calm     80% 0.0 mm
09:49 16.2 °C 12.6 °C 1017.5 hPa Calm     79.1% 0.0 mm
09:54 16.3 °C 12.6 °C 1017.5 hPa Calm   7.4 km/h 79% 0.0 mm
09:59 16.4 °C 12.7 °C 1017.5 hPa NO 1.4 km/h 9.3 km/h 79% 0.0 mm
10:04 16.4 °C 12.7 °C 1017.5 hPa ONO 2.9 km/h 9.7 km/h 79% 0.0 mm
10:09 16.4 °C 12.7 °C 1017.5 hPa NNO 3.3 km/h 9.7 km/h 79% 0.0 mm
10:14 16.3 °C 12.7 °C 1017.5 hPa NNE 3.9 km/h 8 km/h 79% 0.0 mm
10:19 16.4 °C 12.7 °C 1017.5 hPa Este 3.5 km/h 7.4 km/h 79% 0.0 mm
10:24 16.5 °C 12.9 °C 1017.5 hPa North 2.9 km/h 8.4 km/h 79% 0.0 mm
10:29 16.6 °C 13 °C 1017.5 hPa NNE 3.3 km/h 8 km/h 79% 0.0 mm
10:34 16.7 °C 13 °C 1017.5 hPa NE 3.9 km/h 10 km/h 78.4% 0.0 mm
10:39 16.9 °C 13 °C 1017.5 hPa NE 4.2 km/h 13 km/h 78% 0.0 mm
10:44 17.1 °C 13.1 °C 1017.5 hPa ENE 4.7 km/h 13 km/h 77.6% 0.0 mm
10:49 17.3 °C 13 °C 1017.5 hPa Este 5.1 km/h 12.9 km/h 76% 0.0 mm
10:54 17.4 °C 13.1 °C 1017.5 hPa ESE 5.8 km/h 9.7 km/h 75.9% 0.0 mm
10:59 17.7 °C 13.2 °C 1017.5 hPa Este 5.4 km/h 10 km/h 75% 0.0 mm
11:04 17.8 °C 13.2 °C 1017.7 hPa NE 5 km/h 10.3 km/h 74.4% 0.0 mm
11:09 17.9 °C 13.2 °C 1017.7 hPa NNO 5.3 km/h 9.7 km/h 74% 0.0 mm
11:14 17.9 °C 13.2 °C 1017.7 hPa NNE 5.8 km/h 9.5 km/h 73.8% 0.0 mm
11:19 18.2 °C 13.3 °C 1017.7 hPa North 5.3 km/h 9.7 km/h 73.3% 0.0 mm
11:24 18.3 °C 13.4 °C 1017.5 hPa Este 4.7 km/h 11.1 km/h 72.7% 0.0 mm
11:29 18.5 °C 13.3 °C 1017.5 hPa Este 5.1 km/h 11.3 km/h 72.1% 0.0 mm
11:34 18.6 °C 13.4 °C 1017.6 hPa Este 5.8 km/h 8.4 km/h 72% 0.0 mm
11:39 18.8 °C 13.5 °C 1017.6 hPa NE 4.7 km/h 11.1 km/h 71.2% 0.0 mm
11:44 18.9 °C 13.4 °C 1017.6 hPa ENE 3.2 km/h 11.3 km/h 70.5% 0.0 mm
11:49 19.1 °C 13.6 °C 1017.6 hPa ESE 3.2 km/h 9.3 km/h 70.2% 0.0 mm
11:54 19.3 °C 13.5 °C 1017.5 hPa NNO 3.2 km/h 11.1 km/h 69.2% 0.0 mm
11:59 19.5 °C 13.6 °C 1017.5 hPa NE 3.9 km/h 11.3 km/h 69% 0.0 mm
12:04 19.8 °C 13.8 °C 1017.5 hPa ESE 4.6 km/h 10 km/h 68.5% 0.0 mm
12:09 20.2 °C 13.9 °C 1017.4 hPa North 4.3 km/h 9.7 km/h 67% 0.0 mm
12:14 20.4 °C 13.9 °C 1017.4 hPa ENE 3.9 km/h 13 km/h 66.3% 0.0 mm
12:19 20.2 °C 13.8 °C 1017.4 hPa NE 4.6 km/h 12.9 km/h 66.6% 0.0 mm
12:24 20.3 °C 13.9 °C 1017.4 hPa NE 5.8 km/h 13 km/h 67% 0.0 mm
12:29 20.3 °C 13.9 °C 1017.4 hPa NNE 6 km/h 13.7 km/h 67% 0.0 mm
12:34 20.4 °C 14.1 °C 1017.4 hPa North 6.5 km/h 14.5 km/h 67% 0.0 mm
12:39 20.7 °C 14.1 °C 1017.1 hPa NNE 6.5 km/h 18.5 km/h 66.1% 0.0 mm
12:44 20.7 °C 14.1 °C 1017.1 hPa NNE 6.5 km/h 19.3 km/h 66% 0.0 mm
12:49 20.9 °C 14.2 °C 1017.1 hPa NNE 7.2 km/h 17.7 km/h 65.8% 0.0 mm
12:54 20.9 °C 14.1 °C 1017.0 hPa NE 8.4 km/h 20.9 km/h 65.1% 0.0 mm
12:59 21 °C 14.3 °C 1017.0 hPa NE 9.3 km/h 20.9 km/h 65.3% 0.0 mm
13:04 21.1 °C 14.3 °C 1017.0 hPa NE 10.3 km/h 18.3 km/h 65% 0.0 mm
13:09 21.3 °C 14.4 °C 1016.8 hPa NE 10 km/h 19.3 km/h 64.5% 0.0 mm
13:14 21.6 °C 14.4 °C 1016.8 hPa NE 9.5 km/h 19.3 km/h 63.6% 0.0 mm
13:19 21.7 °C 14.5 °C 1016.8 hPa NNE 8.7 km/h 24.1 km/h 63.4% 0.0 mm
13:24 21.9 °C 14.4 °C 1016.7 hPa NE 7.6 km/h 24.1 km/h 62.5% 0.0 mm
13:29 22.1 °C 14.4 °C 1016.7 hPa NNE 9.2 km/h 20.9 km/h 61.7% 0.0 mm
13:34 22.3 °C 14.5 °C 1016.7 hPa NE 11.9 km/h 19.3 km/h 61.2% 0.0 mm
13:39 22.5 °C 14.5 °C 1016.4 hPa NE 10.5 km/h 19 km/h 60.3% 0.0 mm
13:44 22.8 °C 14.6 °C 1016.4 hPa NE 8.4 km/h 19.3 km/h 59.7% 0.0 mm
13:49 23.1 °C 14.6 °C 1016.4 hPa NE 8.8 km/h 22.2 km/h 58.6% 0.0 mm
13:54 23.2 °C 14.5 °C 1016.2 hPa NE 9.5 km/h 22.5 km/h 58% 0.0 mm
13:59 23.3 °C 14.6 °C 1016.2 hPa NE 10.3 km/h 20.4 km/h 58.5% 0.0 mm
14:04 23.3 °C 14.7 °C 1016.2 hPa NE 11.1 km/h 22.2 km/h 58.2% 0.0 mm
14:09 23.3 °C 14.8 °C 1016.0 hPa NE 11.9 km/h 22.5 km/h 59.1% 0.0 mm
14:14 23.3 °C 14.8 °C 1016.0 hPa ENE 13 km/h 29.6 km/h 58.6% 0.0 mm
14:19 23.3 °C 14.8 °C 1016.0 hPa NE 13.3 km/h 29 km/h 59.1% 0.0 mm
14:24 23.4 °C 14.9 °C 1016.0 hPa NE 13.7 km/h 22.5 km/h 59.1% 0.0 mm
14:29 23.6 °C 15.1 °C 1016.0 hPa NE 13.1 km/h 30.6 km/h 59% 0.0 mm
14:34 23.6 °C 15.1 °C 1016.0 hPa NE 12.2 km/h 30.6 km/h 59% 0.0 mm
14:39 23.4 °C 14.9 °C 1015.7 hPa NNE 13.9 km/h 33.3 km/h 58.8% 0.0 mm
14:44 23.5 °C 14.8 °C 1015.7 hPa ENE 16.4 km/h 33.8 km/h 58% 0.0 mm
14:49 23.7 °C 14.7 °C 1015.7 hPa Este 13.8 km/h 20.9 km/h 57% 0.0 mm
14:54 23.8 °C 14.6 °C 1015.7 hPa ESE 10 km/h 20.9 km/h 56.5% 0.0 mm
14:59 23.7 °C 14.5 °C 1015.7 hPa Este 10.9 km/h 20.9 km/h 56.3% 0.0 mm
15:04 23.9 °C 14.9 °C 1015.7 hPa ESE 11.9 km/h 20.9 km/h 57% 0.0 mm
15:09 24.2 °C 14.7 °C 1015.6 hPa ESE 11.3 km/h 20.9 km/h 55.5% 0.0 mm
15:14 24.1 °C 14.7 °C 1015.6 hPa ESE 10.3 km/h 20.9 km/h 55.6% 0.0 mm
15:19 24.2 °C 14.6 °C 1015.6 hPa ESE 10.3 km/h 25.9 km/h 55.2% 0.0 mm
15:24 24 °C 14.6 °C 1015.6 hPa ESE 10.3 km/h 25.7 km/h 55.6% 0.0 mm
15:29 24 °C 14.7 °C 1015.6 hPa ESE 10.9 km/h 22.5 km/h 56.1% 0.0 mm
15:34 24.2 °C 14.8 °C 1015.6 hPa ENE 11.9 km/h 22.5 km/h 56% 0.0 mm
15:39 24.2 °C 14.6 °C 1015.5 hPa ESE 11.2 km/h 20.9 km/h 55.1% 0.0 mm
15:44 24.1 °C 14.5 °C 1015.5 hPa Este 10.3 km/h 20.9 km/h 55% 0.0 mm
15:49 24.2 °C 14.6 °C 1015.5 hPa Este 9.5 km/h 22.2 km/h 55% 0.0 mm
15:54 24.2 °C 14.6 °C 1015.5 hPa ESE 8.4 km/h 22.5 km/h 55% 0.0 mm
15:59 24.2 °C 14.7 °C 1015.5 hPa ESE 10.2 km/h 25.9 km/h 55.5% 0.0 mm
16:04 24 °C 14.5 °C 1015.5 hPa SE 11.9 km/h 25.7 km/h 55.3% 0.0 mm
16:09 23.8 °C 14.6 °C 1015.4 hPa ESE 13.3 km/h 27.4 km/h 56.3% 0.0 mm
16:14 23.7 °C 14.6 °C 1015.4 hPa Este 15.6 km/h 27.8 km/h 56.7% 0.0 mm
16:19 23.7 °C 14.5 °C 1015.4 hPa ESE 14.9 km/h 24.1 km/h 56.5% 0.0 mm
16:24 23.9 °C 14.7 °C 1015.3 hPa ESE 14 km/h 22.5 km/h 56.4% 0.0 mm
16:29 23.9 °C 14.6 °C 1015.3 hPa ESE 13.2 km/h 24.1 km/h 55.8% 0.0 mm
16:34 23.9 °C 14.5 °C 1015.3 hPa Este 11.9 km/h 24.1 km/h 55.7% 0.0 mm
16:39 23.9 °C 14.6 °C 1015.2 hPa ESE 11.9 km/h 24.5 km/h 56% 0.0 mm
16:44 23.9 °C 14.7 °C 1015.2 hPa ESE 11.9 km/h 24.1 km/h 56.3% 0.0 mm
16:49 24 °C 14.6 °C 1015.2 hPa ESE 11.6 km/h 19.3 km/h 55.9% 0.0 mm
16:54 24.1 °C 14.6 °C 1015.1 hPa ESE 11.1 km/h 19.8 km/h 55.5% 0.0 mm
16:59 24 °C 14.6 °C 1015.1 hPa Este 11.1 km/h 25.9 km/h 55.6% 0.0 mm
17:04 23.9 °C 14.7 °C 1015.1 hPa ESE 11.1 km/h 27.8 km/h 56.4% 0.0 mm
17:09 23.8 °C 14.8 °C 1015.1 hPa ESE 12.1 km/h 27.4 km/h 57% 0.0 mm
17:14 23.8 °C 14.8 °C 1015.1 hPa ESE 14.8 km/h 28.6 km/h 57% 0.0 mm
17:19 23.6 °C 14.8 °C 1015.1 hPa ESE 14.8 km/h 29 km/h 57.7% 0.0 mm
17:24 23.6 °C 14.8 °C 1015.1 hPa ESE 15 km/h 30.9 km/h 58% 0.0 mm
17:29 23.5 °C 14.9 °C 1015.1 hPa ESE 15.8 km/h 32.2 km/h 58.5% 0.0 mm
17:34 23.6 °C 15.1 °C 1015.1 hPa ESE 16.1 km/h 32.2 km/h 58.9% 0.0 mm
17:39 23.5 °C 15 °C 1015.1 hPa ESE 16.2 km/h 30.6 km/h 58.9% 0.0 mm
17:44 23.4 °C 15 °C 1015.0 hPa ESE 16.4 km/h 28.2 km/h 59.2% 0.0 mm
17:49 23.3 °C 15 °C 1015.1 hPa ESE 15.7 km/h 27.8 km/h 59.4% 0.0 mm
17:54 23.3 °C 15.1 °C 1015.1 hPa SE 14.8 km/h 27.4 km/h 60% 0.0 mm
17:59 23.3 °C 15.1 °C 1015.1 hPa SE 15.5 km/h 27 km/h 60% 0.0 mm
18:04 23.2 °C 15.2 °C 1015.1 hPa ESE 16.1 km/h 28.6 km/h 61% 0.0 mm
18:09 22.9 °C 15.1 °C 1015.1 hPa SE 16.6 km/h 29.6 km/h 61.4% 0.0 mm
18:14 22.7 °C 15.1 °C 1015.1 hPa ESE 17.2 km/h 29 km/h 62% 0.0 mm
18:19 22.7 °C 15.2 °C 1015.1 hPa ESE 17.2 km/h 29.1 km/h 62.7% 0.0 mm
18:24 22.8 °C 15.1 °C 1015.1 hPa SE 17.2 km/h 29.6 km/h 62% 0.0 mm
18:29 22.7 °C 15.1 °C 1015.1 hPa ESE 16.1 km/h 29 km/h 62% 0.0 mm
18:34 22.8 °C 15.1 °C 1015.1 hPa ESE 14.8 km/h 24.1 km/h 62% 0.0 mm
18:39 22.7 °C 15.1 °C 1015.0 hPa ESE 14.4 km/h 26.2 km/h 62.5% 0.0 mm
18:44 22.5 °C 15.1 °C 1015.0 hPa ESE 13.7 km/h 25.7 km/h 63% 0.0 mm
18:49 22.5 °C 15.1 °C 1015.0 hPa ESE 13.8 km/h 24.5 km/h 63% 0.0 mm
18:54 22.4 °C 15 °C 1015.0 hPa ESE 14 km/h 24.1 km/h 63% 0.0 mm
18:59 22.4 °C 15 °C 1015.0 hPa SE 13.5 km/h 24.1 km/h 63% 0.0 mm
19:04 22.4 °C 15 °C 1015.0 hPa ESE 13 km/h 24.1 km/h 63% 0.0 mm
19:09 22.2 °C 15 °C 1015.2 hPa ESE 13.4 km/h 22.2 km/h 63.8% 0.0 mm
19:14 22 °C 15 °C 1015.2 hPa ESE 14 km/h 26.2 km/h 64.5% 0.0 mm
19:19 21.7 °C 14.9 °C 1015.2 hPa ESE 14.3 km/h 25.7 km/h 65.3% 0.0 mm
19:24 21.7 °C 15 °C 1015.2 hPa ESE 14.8 km/h 25.9 km/h 65.5% 0.0 mm
19:29 21.8 °C 15 °C 1015.2 hPa Este 13.4 km/h 20.9 km/h 65.1% 0.0 mm
19:34 21.7 °C 15 °C 1015.2 hPa Este 11.1 km/h 22.2 km/h 65.8% 0.0 mm
19:39 21.4 °C 14.9 °C 1015.2 hPa Este 11.5 km/h 22.5 km/h 66.5% 0.0 mm
19:44 21.4 °C 15 °C 1015.2 hPa ENE 12.2 km/h 20.9 km/h 67% 0.0 mm
19:49 21.4 °C 15 °C 1015.3 hPa Este 11.4 km/h 22.2 km/h 67% 0.0 mm
19:54 21.3 °C 14.9 °C 1015.3 hPa Este 10 km/h 22.5 km/h 67% 0.0 mm
19:59 21.2 °C 14.9 °C 1015.3 hPa ENE 10 km/h 19.3 km/h 67% 0.0 mm
20:04 21.3 °C 14.9 °C 1015.5 hPa Este 10 km/h 19 km/h 67% 0.0 mm
20:09 21.2 °C 14.9 °C 1015.5 hPa ESE 9.8 km/h 20.4 km/h 67% 0.0 mm
20:14 21.2 °C 14.8 °C 1015.5 hPa Este 9.5 km/h 20.9 km/h 67% 0.0 mm
20:19 21.1 °C 14.9 °C 1015.5 hPa NE 9.7 km/h 18.5 km/h 67.6% 0.0 mm
20:24 20.9 °C 15 °C 1015.5 hPa NE 10 km/h 21.7 km/h 69.1% 0.0 mm
20:29 20.7 °C 15 °C 1015.5 hPa NE 10.9 km/h 22.2 km/h 70% 0.0 mm
20:34 20.4 °C 14.9 °C 1015.7 hPa NE 12.2 km/h 22.5 km/h 70.8% 0.0 mm
20:39 20.3 °C 15 °C 1015.7 hPa NE 12.8 km/h 22.5 km/h 71.6% 0.0 mm
20:44 20.2 °C 15 °C 1015.7 hPa NE 13.7 km/h 25.6 km/h 72% 0.0 mm
20:49 20 °C 15 °C 1015.8 hPa NE 14.1 km/h 31.7 km/h 73.2% 0.0 mm
20:54 19.7 °C 15 °C 1015.8 hPa NE 14.8 km/h 32.2 km/h 74.4% 0.0 mm
20:59 19.3 °C 14.9 °C 1015.8 hPa NE 16.3 km/h 32.2 km/h 75.3% 0.0 mm
21:04 19.2 °C 14.9 °C 1015.9 hPa NE 18 km/h 27.8 km/h 76% 0.0 mm
21:09 19.2 °C 14.8 °C 1015.9 hPa NE 17.4 km/h 27.4 km/h 76% 0.0 mm
21:14 19 °C 14.8 °C 1015.9 hPa NE 16.4 km/h 29.1 km/h 76.8% 0.0 mm
21:19 18.8 °C 14.8 °C 1016.0 hPa NE 16.4 km/h 29 km/h 77.4% 0.0 mm
21:24 18.8 °C 14.9 °C 1016.0 hPa NE 16.4 km/h 25.7 km/h 78% 0.0 mm
21:29 18.7 °C 14.8 °C 1016.0 hPa NE 15.3 km/h 22.5 km/h 78% 0.0 mm
21:34 18.6 °C 14.7 °C 1016.4 hPa NE 13.7 km/h 26.2 km/h 78.6% 0.0 mm
21:39 18.4 °C 14.7 °C 1016.4 hPa NE 14.1 km/h 25.7 km/h 79% 0.0 mm
21:44 18.4 °C 14.7 °C 1016.4 hPa NE 14.8 km/h 20.9 km/h 79% 0.0 mm
21:49 18.3 °C 14.6 °C 1016.5 hPa NE 14.4 km/h 22.5 km/h 79% 0.0 mm
21:54 18.3 °C 14.7 °C 1016.5 hPa NE 13.7 km/h 22.5 km/h 79.8% 0.0 mm
21:59 18.2 °C 14.7 °C 1016.5 hPa NE 13 km/h 20.9 km/h 80% 0.0 mm
22:04 18.2 °C 14.6 °C 1016.6 hPa NE 12.2 km/h 22.2 km/h 80% 0.0 mm
22:09 18.1 °C 14.6 °C 1016.6 hPa NE 12.2 km/h 22.5 km/h 80% 0.0 mm
22:14 18.1 °C 14.7 °C 1016.6 hPa NE 12.2 km/h 24.5 km/h 80.6% 0.0 mm
22:19 17.9 °C 14.6 °C 1016.8 hPa NE 12.5 km/h 24.1 km/h 81% 0.0 mm
22:24 17.9 °C 14.6 °C 1016.8 hPa NE 13 km/h 24.1 km/h 81% 0.0 mm
22:29 17.9 °C 14.6 °C 1016.8 hPa NE 13 km/h 22.5 km/h 81% 0.0 mm
22:34 17.9 °C 14.6 °C 1017.0 hPa NE 13 km/h 19.3 km/h 81% 0.0 mm
22:39 17.8 °C 14.6 °C 1017.0 hPa NE 12.3 km/h 19 km/h 81.4% 0.0 mm
22:44 17.8 °C 14.7 °C 1017.0 hPa NE 11.1 km/h 19.3 km/h 82% 0.0 mm
22:49 17.8 °C 14.7 °C 1017.2 hPa NE 10.2 km/h 14.5 km/h 82% 0.0 mm
22:54 17.7 °C 14.6 °C 1017.2 hPa NE 8.7 km/h 14 km/h 82% 0.0 mm
22:59 17.7 °C 14.6 °C 1017.2 hPa NE 9.1 km/h 15.6 km/h 82% 0.0 mm
23:04 17.7 °C 14.6 °C 1017.3 hPa NE 9.5 km/h 16.7 km/h 82% 0.0 mm
23:09 17.6 °C 14.5 °C 1017.3 hPa NE 9.2 km/h 16.1 km/h 82.2% 0.0 mm
23:14 17.6 °C 14.7 °C 1017.3 hPa NE 8.7 km/h 13.7 km/h 83% 0.0 mm
23:19 17.6 °C 14.7 °C 1017.4 hPa NE 8.3 km/h 14.5 km/h 83% 0.0 mm
23:24 17.6 °C 14.5 °C 1017.4 hPa NE 7.6 km/h 13 km/h 82.4% 0.0 mm
23:29 17.4 °C 14.5 °C 1017.4 hPa NE 8.3 km/h 14.8 km/h 83% 0.0 mm
23:34 17.3 °C 14.5 °C 1017.4 hPa NE 9.5 km/h 14.5 km/h 83% 0.0 mm
23:39 17.3 °C 14.5 °C 1017.2 hPa NE 9 km/h 14.5 km/h 83.7% 0.0 mm
23:44 17.2 °C 14.4 °C 1017.2 hPa NNE 8.4 km/h 14.5 km/h 84% 0.0 mm
23:49 17.1 °C 14.4 °C 1017.3 hPa NNE 8.1 km/h 11.3 km/h 84% 0.0 mm
23:54 17.1 °C 14.5 °C 1017.3 hPa NE 7.6 km/h 11.3 km/h 84.4% 0.0 mm
23:59 17 °C 14.5 °C 1017.3 hPa NE 7.3 km/h 11.3 km/h 85% 0.0 mm
Murcia-Puente Tocinos, Espa?a
Compliments of Weather Underground - 3.25 mb

La estación de MeteoMurcia.com, publica sus datos en los siguientes proyectos:

Weather Underground PWS IMURCIAP2 Meteoclimatic www.awekas.at

W3Counter
Web Analytics